Impacts METAR Board INFO
IDs:

KCLT - Charlotte/Douglas In, NC, US

Updated at: 1250 UTC 20 Jan 2018
Potential Impact None Slight Moderate High
Time20/00Z 20/01Z 20/02Z 20/03Z 20/04Z 20/05Z 20/06Z 20/07Z 20/08Z 20/09Z 20/10Z 20/11Z 20/12Z
VIS10 10 10 10 10 10 10 10 10 10 10 10 10
CIG-- -- -- -- -- -- -- -- -- -- -- -- --
CoverCLRCLRCLRCLRCLRCLRCLRCLRCLRCLRCLRCLRCLR
FltCatVFRVFRVFRVFRVFRVFRVFRVFRVFRVFRVFRVFRVFR
WX--------------------------
WDir1902002000180140190000200210290
WSpd4 3 5 0 3 3 4 0 0 0 5 6 4
WGst-- -- -- -- -- -- -- -- -- -- -- -- --
Raw hourly METARs
KCLT 192352Z 19004KT 10SM CLR 08/M06 A3016 RMK AO2 SLP219 T00781056 10133 20078 55000
KCLT 200052Z 20003KT 10SM CLR 05/M06 A3016 RMK AO2 SLP218 T00501056
KCLT 200152Z 20005KT 10SM CLR 06/M06 A3016 RMK AO2 SLP218 T00611056
KCLT 200252Z 00000KT 10SM CLR 04/M06 A3017 RMK AO2 SLP220 T00441061 53002
KCLT 200352Z 18003KT 10SM CLR 05/M06 A3017 RMK AO2 SLP219 T00501061
KCLT 200452Z 14003KT 10SM CLR 03/M06 A3017 RMK AO2 SLP216 T00331056 401331056
KCLT 200552Z 19004KT 10SM CLR M01/M06 A3016 RMK AO2 SLP215 T10061061 10094 21006 58003
KCLT 200652Z 00000KT 10SM CLR 01/M07 A3015 RMK AO2 SLP210 T00061067
KCLT 200752Z 00000KT 10SM CLR 01/M08 A3015 RMK AO2 SLP211 T00111078
KCLT 200852Z 00000KT 10SM CLR M01/M09 A3014 RMK AO2 SLP210 T10061089 56006
KCLT 200952Z 20005KT 10SM CLR M02/M08 A3015 RMK AO2 SLP213 T10221078
KCLT 201052Z 21006KT 10SM CLR M01/M08 A3016 RMK AO2 SLP215 T10111078
KCLT 201152Z 29004KT 10SM CLR M01/M08 A3018 RMK AO2 SLP222 T10061083 10017 21028 53011